Stewartville, MN

2:04 PM CST on December 28, 2014 (GMT -0600)
KMNSTEWA3 | Change Station
CLOSE
Current Station
Personal Weather Station
Location: Stewartville, MN
Elevation: 1253 ft
Nearby Weather Stations

Elev 1253 ft 43.84 °N, 92.48 °W | Updated 14 minutes ago

Clear
Clear
19.3 °F
Feels Like 19 °F
N
0.0
Wind Variable Wind from NW
Gusts 4.0 mph

Today
High -- | Low -- °F
--% Chance of Precip.
Yesterday
High -- | Low -- °F
Precip. -- in
7:43 AM 4:39 PM
Waxing Crescent, 51% visible
Pressure 30.22 in
Visibility 8.0 miles
Clouds Clear
Windchill 19 °F
Dew Point 15 °F
Humidity 82%
Rainfall 0.04 in
Snow Depth Not available.
UV 1 out of 12
Pollen .10 out of 12
Air Quality Not available.
Flu Activity Not available.
METAR KRST 281954Z 30004KT 8SM CLR M08/M11 A3013 RMK AO2 SLP232 T10781111

More Conditions Fewer Conditions

Pressure 30.22 in
Visibility 8.0 miles
Clouds Clear
Windchill 19 °F
Dew Point 15 °F
Humidity 82%
Rainfall 0.04 in
Snow Depth Not available.
UV 1 out of 12
Pollen .10 out of 12
Air Quality Not available.
Flu Activity Not available.
METAR KRST 281954Z 30004KT 8SM CLR M08/M11 A3013 RMK AO2 SLP232 T10781111

More Conditions Fewer Conditions

Nowcast | as of 1:36 PM CST on December 28, 2014

Expect a few clouds to limit sunshine as the afternoon wears on...and there could be a few snow flurries as well.

×

10-Day Weather Forecast

Almanac

Astronomy

Dec. 28, 2014 Rise Set
Actual Time
Civil Twilight
Nautical Twilight
Astronomical Twilight
Moon
Length of Visible Light
Length of Day
Tomorrow will be .
, % of the Moon is Illuminated

Today's Extremes

State Highs State Lows

Community

WunderPhotos

Upload Photos

1,781,407 photos uploaded!

WunderBlogs® & News

Nearby

Air Quality

  Air Quality AQ Index Pollutant
Not available.

Snow Depth

Station Depth Elevation

Earthquake Activity

City Distance Mag. Time & Date
Minimum magnitude displayed is 2.5.

Coastal Water Temperatures

Place Temperature

Nearby Weather Stations